Terminal Aerodrome Forecast
Issued by NWS

Home | Current Version | Previous Version | Text Only | Print | Product List | Glossary On
Versions: 1 2 3 4 5 6 7 8 9 10 11 12 13 14 15 16 17 18 19 20 21 22 23
327
FTUS43 KPAH 291326 AAA
TAFCGI
TAF AMD
KCGI 291326Z 2913/3012 10008G23KT P6SM VCSH BKN025 OVC040
     FM291600 19014G22KT P6SM VCTS BKN035CB
      TEMPO 2917/2919 5SM -TSRA
     FM300500 17014G25KT P6SM BKN035
     FM300800 16010KT 5SM -TSRA BR BKN007CB OVC025=

USA.gov is the U.S. government's official web portal to all federal, state and local government web resources and services.